Time;durP1;ratioP1;P1;durP2;ratioP2;P2;SDS_P1;SDS_P2;PMS_P1;PMS_P2;Temp;Humidity;BMP_temperature;BMP_pressure;BME280_temperature;BME280_humidity;BME280_pressure;Samples;Min_cycle;Max_cycle;Signal;HPM_P1;HPM_P2
2022/10/21 00:00:54;;;;;;;30.83;23.40;;;;;;;;;;5056535;28;20088;-65
2022/10/21 00:03:21;;;;;;;32.65;21.98;;;;;;;;;;5056066;28;20057;-66
2022/10/21 00:05:47;;;;;;;36.83;22.88;;;;;;;;;;5074178;28;20040;-67
2022/10/21 00:08:13;;;;;;;33.03;22.65;;;;;;;;;;5074078;28;20056;-65
2022/10/21 00:10:39;;;;;;;32.42;23.83;;;;;;;;;;5056241;28;20499;-65
2022/10/21 00:13:05;;;;;;;33.55;22.45;;;;;;;;;;5073926;28;20025;-66
2022/10/21 00:15:31;;;;;;;32.65;22.38;;;;;;;;;;5056124;28;20074;-67
2022/10/21 00:17:57;;;;;;;31.05;22.25;;;;;;;;;;5074281;28;20480;-65
2022/10/21 00:20:23;;;;;;;28.75;20.83;;;;;;;;;;5055981;28;20035;-67
2022/10/21 00:22:49;;;;;;;31.95;22.05;;;;;;;;;;5074134;28;20468;-65
2022/10/21 00:25:15;;;;;;;32.33;22.67;;;;;;;;;;5073207;28;20021;-66
2022/10/21 00:27:41;;;;;;;28.55;21.27;;;;;;;;;;5072962;28;20019;-66
2022/10/21 00:30:08;;;;;;;32.58;22.17;;;;;;;;;;5056352;28;20050;-66
2022/10/21 00:32:34;;;;;;;31.27;21.60;;;;;;;;;;5057906;28;20131;-66
2022/10/21 00:35:00;;;;;;;32.33;21.17;;;;;;;;;;5072993;28;20028;-65
2022/10/21 00:37:29;;;;;;;30.00;22.15;;;;;;;;;;5055859;28;20054;-66
2022/10/21 00:39:55;;;;;;;36.35;22.17;;;;;;;;;;5073709;28;20024;-66
2022/10/21 00:42:21;;;;;;;33.25;22.48;;;;;;;;;;5055072;28;20400;-65
2022/10/21 00:45:06;;;;;;;31.35;23.02;;;;;;;;;;5054942;28;20029;-65
2022/10/21 00:47:34;;;;;;;29.85;21.55;;;;;;;;;;5073612;28;20024;-65
2022/10/21 00:50:00;;;;;;;;;;;;;;;;;;5073700;28;20113;-65
2022/10/21 00:52:27;;;;;;;28.63;20.70;;;;;;;;;;5055324;28;19922;-66
2022/10/21 00:54:54;;;;;;;29.17;20.35;;;;;;;;;;5054754;28;20372;-66
2022/10/21 00:57:21;;;;;;;31.50;20.50;;;;;;;;;;5072849;28;20387;-66
2022/10/21 00:59:50;;;;;;;32.60;21.45;;;;;;;;;;5073141;28;20031;-64
2022/10/21 01:02:16;;;;;;;29.35;21.00;;;;;;;;;;5055121;28;20395;-64
2022/10/21 01:04:42;;;;;;;29.15;20.77;;;;;;;;;;5072833;28;20024;-64
2022/10/21 01:07:08;;;;;;;26.30;19.70;;;;;;;;;;5055009;28;20025;-65
2022/10/21 01:09:34;;;;;;;27.55;19.10;;;;;;;;;;5072889;28;20052;-65
2022/10/21 01:12:02;;;;;;;31.67;21.45;;;;;;;;;;5072770;28;20028;-66
2022/10/21 01:14:43;;;;;;;29.15;20.38;;;;;;;;;;5072698;28;20032;-65
2022/10/21 01:17:15;;;;;;;28.00;20.80;;;;;;;;;;5072476;28;20024;-64
2022/10/21 01:19:44;;;;;;;31.08;21.42;;;;;;;;;;5072915;28;20024;-64
2022/10/21 01:22:42;;;;;;;31.77;21.00;;;;;;;;;;5072386;28;20397;-65
2022/10/21 01:25:08;;;;;;;;;;;;;;;;;;5039196;28;20044;-65
2022/10/21 01:27:42;;;;;;;31.33;21.15;;;;;;;;;;5072973;28;19905;-66
2022/10/21 01:30:26;;;;;;;30.23;19.70;;;;;;;;;;5054831;28;20020;-65
2022/10/21 01:33:06;;;;;;;30.45;20.98;;;;;;;;;;5072847;28;20024;-65
2022/10/21 01:35:32;;;;;;;27.67;19.50;;;;;;;;;;5072608;28;20040;-65
2022/10/21 01:38:04;;;;;;;35.88;21.10;;;;;;;;;;5054292;28;20028;-65
2022/10/21 01:40:42;;;;;;;28.13;20.30;;;;;;;;;;5072770;28;20041;-65
2022/10/21 01:43:22;;;;;;;28.48;19.85;;;;;;;;;;5072409;28;20028;-65
2022/10/21 01:45:53;;;;;;;28.67;20.10;;;;;;;;;;5054603;28;20028;-65
2022/10/21 01:48:24;;;;;;;32.47;21.63;;;;;;;;;;5054688;28;20056;-64
2022/10/21 01:50:52;;;;;;;27.75;19.48;;;;;;;;;;5072436;28;20021;-65
2022/10/21 01:53:18;;;;;;;28.80;19.90;;;;;;;;;;5072333;28;20063;-64
2022/10/21 01:55:45;;;;;;;27.98;19.13;;;;;;;;;;5072235;28;20050;-65
2022/10/21 01:58:14;;;;;;;29.90;20.10;;;;;;;;;;5072341;28;20028;-65
2022/10/21 02:00:40;;;;;;;;;;;;;;;;;;5054697;28;20477;-67
2022/10/21 02:03:08;;;;;;;28.13;19.02;;;;;;;;;;5054178;28;19916;-64
2022/10/21 02:05:34;;;;;;;28.50;18.98;;;;;;;;;;5072015;28;20028;-65
2022/10/21 02:08:00;;;;;;;28.90;20.75;;;;;;;;;;5054314;28;20492;-65
2022/10/21 02:10:29;;;;;;;29.23;20.50;;;;;;;;;;5054297;28;20126;-66
2022/10/21 02:12:58;;;;;;;26.75;19.75;;;;;;;;;;5054373;28;20824;-65
2022/10/21 02:15:25;;;;;;;29.65;20.35;;;;;;;;;;5053858;28;20484;-66
2022/10/21 02:17:57;;;;;;;32.47;20.70;;;;;;;;;;5072145;28;20032;-65
2022/10/21 02:20:24;;;;;;;29.80;21.02;;;;;;;;;;5072067;28;20051;-64
2022/10/21 02:22:50;;;;;;;28.38;20.15;;;;;;;;;;5071726;28;20029;-65
2022/10/21 02:25:25;;;;;;;28.88;20.95;;;;;;;;;;5071636;28;20024;-66
2022/10/21 02:27:51;;;;;;;33.65;21.70;;;;;;;;;;5071903;28;20484;-66
2022/10/21 02:30:18;;;;;;;32.85;22.08;;;;;;;;;;5071811;28;20107;-65
2022/10/21 02:32:52;;;;;;;31.45;21.98;;;;;;;;;;5071999;28;20024;-65
2022/10/21 02:35:31;;;;;;;35.47;22.35;;;;;;;;;;5053550;28;20028;-65
2022/10/21 02:38:03;;;;;;;30.38;21.30;;;;;;;;;;5053834;28;20395;-65
2022/10/21 02:40:29;;;;;;;33.42;22.00;;;;;;;;;;5072035;28;20085;-66
2022/10/21 02:43:02;;;;;;;30.73;22.65;;;;;;;;;;5072173;28;20033;-65
2022/10/21 02:45:28;;;;;;;31.10;21.23;;;;;;;;;;5071925;28;20078;-65
2022/10/21 02:47:54;;;;;;;36.70;23.00;;;;;;;;;;5071891;28;20028;-64
2022/10/21 02:50:20;;;;;;;33.83;21.27;;;;;;;;;;5054115;28;20490;-64
2022/10/21 02:52:46;;;;;;;33.08;21.75;;;;;;;;;;5055072;28;20417;-65
2022/10/21 02:55:12;;;;;;;31.02;21.65;;;;;;;;;;5054068;28;20021;-64
2022/10/21 02:57:38;;;;;;;29.27;20.80;;;;;;;;;;5055714;28;20373;-65
2022/10/21 03:00:05;;;;;;;30.42;21.45;;;;;;;;;;5055740;28;20036;-64
2022/10/21 03:02:32;;;;;;;32.35;22.67;;;;;;;;;;5055312;28;20108;-66
2022/10/21 03:04:58;;;;;;;37.75;22.50;;;;;;;;;;5055255;28;20448;-66
2022/10/21 03:07:24;;;;;;;34.40;24.13;;;;;;;;;;5055347;28;20021;-64
2022/10/21 03:09:50;;;;;;;32.50;22.70;;;;;;;;;;5055470;28;20029;-65
2022/10/21 03:12:16;;;;;;;33.97;22.10;;;;;;;;;;5054169;28;20025;-66
2022/10/21 03:14:42;;;;;;;35.28;22.95;;;;;;;;;;5054961;28;20396;-64
2022/10/21 03:17:08;;;;;;;34.22;22.80;;;;;;;;;;5055197;28;20029;-66
2022/10/21 03:19:34;;;;;;;40.22;25.65;;;;;;;;;;5054998;28;20155;-65
2022/10/21 03:22:00;;;;;;;43.05;23.80;;;;;;;;;;5053588;28;20036;-64
2022/10/21 03:24:26;;;;;;;44.22;26.92;;;;;;;;;;5053939;28;20021;-65
2022/10/21 03:26:52;;;;;;;37.53;24.48;;;;;;;;;;5053872;28;20028;-65
2022/10/21 03:29:18;;;;;;;38.65;26.27;;;;;;;;;;5053525;28;20388;-66
2022/10/21 03:31:44;;;;;;;33.63;24.85;;;;;;;;;;5053517;28;20125;-65
2022/10/21 03:34:09;;;;;;;40.75;25.98;;;;;;;;;;5054417;28;20032;-65
2022/10/21 03:36:35;;;;;;;35.65;24.88;;;;;;;;;;5053523;28;20025;-65
2022/10/21 03:39:01;;;;;;;36.67;25.08;;;;;;;;;;5053640;28;20111;-66
2022/10/21 03:41:27;;;;;;;37.97;25.88;;;;;;;;;;5054802;28;20020;-66
2022/10/21 03:43:53;;;;;;;41.60;25.77;;;;;;;;;;5053016;28;20159;-64
2022/10/21 03:46:19;;;;;;;42.65;26.45;;;;;;;;;;5054720;28;20439;-65
2022/10/21 03:48:45;;;;;;;36.85;25.23;;;;;;;;;;5054536;28;20021;-63
2022/10/21 03:51:11;;;;;;;38.00;25.27;;;;;;;;;;5056540;28;20062;-66
2022/10/21 03:53:37;;;;;;;44.65;28.15;;;;;;;;;;5056469;28;20031;-66
2022/10/21 03:56:03;;;;;;;39.42;26.60;;;;;;;;;;5074603;28;20021;-68
2022/10/21 03:58:29;;;;;;;39.05;25.88;;;;;;;;;;5074319;28;20020;-66
2022/10/21 04:00:55;;;;;;;46.17;26.50;;;;;;;;;;5074818;28;20621;-66
2022/10/21 04:03:21;;;;;;;46.53;27.80;;;;;;;;;;5056327;28;20020;-65
2022/10/21 04:05:47;;;;;;;40.47;26.65;;;;;;;;;;5074157;28;20050;-65
2022/10/21 04:08:13;;;;;;;43.58;27.30;;;;;;;;;;5056911;28;20028;-65
2022/10/21 04:10:39;;;;;;;41.15;27.95;;;;;;;;;;5074571;28;20047;-65
2022/10/21 04:13:05;;;;;;;41.78;29.33;;;;;;;;;;5073865;28;20487;-65
2022/10/21 04:15:31;;;;;;;44.50;27.60;;;;;;;;;;5074216;28;20362;-65
2022/10/21 04:17:57;;;;;;;42.95;28.42;;;;;;;;;;5074015;28;20039;-66
2022/10/21 04:20:23;;;;;;;44.38;28.95;;;;;;;;;;5073902;28;20082;-64
2022/10/21 04:22:49;;;;;;;46.97;30.25;;;;;;;;;;5073629;28;20115;-65
2022/10/21 04:25:15;;;;;;;48.38;31.30;;;;;;;;;;5055671;28;20021;-64
2022/10/21 04:27:41;;;;;;;45.65;30.17;;;;;;;;;;5073669;28;20024;-62
2022/10/21 04:30:08;;;;;;;45.30;29.23;;;;;;;;;;5056333;28;20031;-65
2022/10/21 04:32:34;;;;;;;41.92;29.05;;;;;;;;;;5073898;28;20024;-65
2022/10/21 04:35:00;;;;;;;40.60;29.70;;;;;;;;;;5073608;28;20027;-66
2022/10/21 04:37:26;;;;;;;43.40;28.77;;;;;;;;;;5073608;28;20376;-64
2022/10/21 04:39:52;;;;;;;40.22;27.83;;;;;;;;;;5073406;28;20107;-66
2022/10/21 04:42:18;;;;;;;39.22;27.55;;;;;;;;;;5065648;28;20550;-66
2022/10/21 04:44:44;;;;;;;42.50;29.38;;;;;;;;;;5052312;23;20037;-67
2022/10/21 04:47:10;;;;;;;44.40;29.85;;;;;;;;;;5031545;28;20033;-67
2022/10/21 04:49:36;;;;;;;51.97;32.10;;;;;;;;;;5031542;28;20076;-67
2022/10/21 04:52:02;;;;;;;46.72;32.95;;;;;;;;;;5031423;28;20551;-67
2022/10/21 04:54:28;;;;;;;52.03;37.72;;;;;;;;;;5031325;28;20958;-65
2022/10/21 04:56:54;;;;;;;53.58;32.88;;;;;;;;;;5031420;28;20021;-68
2022/10/21 04:59:20;;;;;;;49.28;35.17;;;;;;;;;;5031310;28;20014;-66
2022/10/21 05:01:46;;;;;;;51.38;36.25;;;;;;;;;;5031087;28;20033;-67
2022/10/21 05:04:12;;;;;;;51.00;33.60;;;;;;;;;;5031122;28;20079;-67
2022/10/21 05:06:38;;;;;;;45.72;30.85;;;;;;;;;;5030961;28;20034;-67
2022/10/21 05:09:04;;;;;;;52.75;35.92;;;;;;;;;;5030212;28;20112;-64
2022/10/21 05:11:30;;;;;;;44.42;32.55;;;;;;;;;;5031352;28;20351;-64
2022/10/21 05:13:56;;;;;;;43.90;30.88;;;;;;;;;;5030307;28;20033;-64
2022/10/21 05:16:22;;;;;;;45.03;32.05;;;;;;;;;;5030989;28;20481;-64
2022/10/21 05:18:48;;;;;;;49.97;33.10;;;;;;;;;;5030951;28;20191;-64
2022/10/21 05:21:14;;;;;;;45.17;31.38;;;;;;;;;;5030956;28;20022;-64
2022/10/21 05:23:41;;;;;;;41.60;32.00;;;;;;;;;;5030499;28;20086;-65
2022/10/21 05:26:07;;;;;;;46.67;31.90;;;;;;;;;;5031184;28;20036;-66
2022/10/21 05:28:33;;;;;;;47.53;32.42;;;;;;;;;;5029320;28;20120;-65
2022/10/21 05:30:59;;;;;;;49.95;33.78;;;;;;;;;;5030098;28;20132;-64
2022/10/21 05:33:25;;;;;;;48.55;32.63;;;;;;;;;;5030337;28;20468;-64
2022/10/21 05:35:55;;;;;;;48.67;33.40;;;;;;;;;;5030722;28;20033;-64
2022/10/21 05:38:21;;;;;;;50.17;33.05;;;;;;;;;;5030595;28;20025;-65
2022/10/21 05:40:47;;;;;;;51.97;34.08;;;;;;;;;;5030850;28;20080;-64
2022/10/21 05:43:13;;;;;;;48.60;33.97;;;;;;;;;;5030500;28;20021;-64
2022/10/21 05:45:39;;;;;;;46.25;31.77;;;;;;;;;;5029020;28;20610;-65
2022/10/21 05:48:05;;;;;;;54.50;33.65;;;;;;;;;;5030161;28;20079;-65
2022/10/21 05:50:31;;;;;;;52.33;33.25;;;;;;;;;;5030199;28;20029;-65
2022/10/21 05:52:57;;;;;;;46.97;32.78;;;;;;;;;;5030468;28;20030;-64
2022/10/21 05:55:23;;;;;;;47.45;32.00;;;;;;;;;;5029943;28;20037;-65
2022/10/21 05:57:49;;;;;;;50.78;31.70;;;;;;;;;;5030333;28;20115;-65
2022/10/21 06:00:15;;;;;;;48.35;31.85;;;;;;;;;;5030363;28;20065;-64
2022/10/21 06:02:41;;;;;;;50.25;30.58;;;;;;;;;;5028968;28;20033;-65
2022/10/21 06:05:07;;;;;;;50.33;32.85;;;;;;;;;;5028698;28;20072;-64
2022/10/21 06:07:34;;;;;;;43.25;29.23;;;;;;;;;;5028577;28;20025;-64
2022/10/21 06:10:00;;;;;;;43.25;29.45;;;;;;;;;;5030102;28;20033;-64
2022/10/21 06:12:26;;;;;;;44.80;31.55;;;;;;;;;;5030096;28;20101;-65
2022/10/21 06:14:52;;;;;;;45.78;30.02;;;;;;;;;;5029977;28;20029;-65
2022/10/21 06:17:18;;;;;;;43.38;29.30;;;;;;;;;;5030043;28;20092;-65
2022/10/21 06:19:44;;;;;;;45.90;28.88;;;;;;;;;;5030300;28;20089;-65
2022/10/21 06:22:10;;;;;;;46.53;30.38;;;;;;;;;;5028628;28;20026;-65
2022/10/21 06:24:36;;;;;;;43.42;29.42;;;;;;;;;;5032568;28;20026;-65
2022/10/21 06:27:03;;;;;;;43.03;29.30;;;;;;;;;;5034353;28;20484;-63
2022/10/21 06:29:29;;;;;;;39.58;27.08;;;;;;;;;;5034079;28;20049;-62
2022/10/21 06:31:55;;;;;;;44.67;28.40;;;;;;;;;;5034184;28;20370;-65
2022/10/21 06:34:21;;;;;;;41.95;28.92;;;;;;;;;;5033572;28;20032;-65
2022/10/21 06:36:47;;;;;;;41.97;27.83;;;;;;;;;;5034047;28;20025;-65
2022/10/21 06:39:13;;;;;;;38.40;27.48;;;;;;;;;;5034207;28;20057;-67
2022/10/21 06:41:39;;;;;;;40.90;28.50;;;;;;;;;;5032584;28;20025;-65
2022/10/21 06:44:05;;;;;;;41.30;27.98;;;;;;;;;;5033255;28;20147;-64
2022/10/21 06:46:31;;;;;;;42.78;28.52;;;;;;;;;;5033546;28;20524;-64
2022/10/21 06:48:57;;;;;;;41.50;28.15;;;;;;;;;;5033816;28;20036;-66
2022/10/21 06:51:23;;;;;;;41.05;28.10;;;;;;;;;;5033726;28;20026;-65
2022/10/21 06:53:54;;;;;;;39.78;27.75;;;;;;;;;;5033397;28;20052;-64
2022/10/21 06:56:20;;;;;;;41.92;27.52;;;;;;;;;;5032262;28;20092;-64
2022/10/21 06:58:48;;;;;;;37.08;25.75;;;;;;;;;;5033905;28;20023;-66
2022/10/21 07:01:22;;;;;;;41.42;27.15;;;;;;;;;;5033907;28;20017;-64
2022/10/21 07:03:48;;;;;;;42.75;27.20;;;;;;;;;;5033415;28;20025;-64
2022/10/21 07:06:14;;;;;;;37.03;24.42;;;;;;;;;;5033517;28;20041;-64
2022/10/21 07:08:40;;;;;;;36.88;25.55;;;;;;;;;;5033387;28;20026;-65
2022/10/21 07:11:07;;;;;;;43.75;26.63;;;;;;;;;;5033506;28;20031;-64
2022/10/21 07:13:34;;;;;;;41.10;27.25;;;;;;;;;;5032887;28;20029;-64
2022/10/21 07:16:02;;;;;;;42.28;25.95;;;;;;;;;;5033775;28;20367;-63
2022/10/21 07:18:28;;;;;;;42.38;26.67;;;;;;;;;;5038323;28;20082;-65
2022/10/21 07:20:54;;;;;;;38.20;25.50;;;;;;;;;;5041821;28;20033;-65
2022/10/21 07:23:20;;;;;;;35.00;26.40;;;;;;;;;;5041966;28;20057;-65
2022/10/21 07:25:46;;;;;;;38.05;26.00;;;;;;;;;;5042171;28;20409;-65
2022/10/21 07:28:12;;;;;;;34.03;25.05;;;;;;;;;;5041313;28;20022;-66
2022/10/21 07:30:42;;;;;;;36.15;25.55;;;;;;;;;;5041441;28;20053;-63
2022/10/21 07:33:08;;;;;;;34.58;25.52;;;;;;;;;;5041952;28;20405;-65
2022/10/21 07:35:34;;;;;;;37.40;25.05;;;;;;;;;;5040386;28;20034;-64
2022/10/21 07:38:00;;;;;;;37.80;25.63;;;;;;;;;;5042389;28;20037;-66
2022/10/21 07:40:27;;;;;;;36.97;25.50;;;;;;;;;;5039865;28;20037;-65
2022/10/21 07:42:53;;;;;;;34.80;24.67;;;;;;;;;;5037696;28;20032;-66
2022/10/21 07:45:20;;;;;;;39.70;25.50;;;;;;;;;;5036882;28;20482;-65
2022/10/21 07:47:46;;;;;;;34.55;24.45;;;;;;;;;;5036775;28;20024;-65
2022/10/21 07:50:12;;;;;;;34.65;24.55;;;;;;;;;;5039109;28;20025;-64
2022/10/21 07:52:44;;;;;;;34.75;23.98;;;;;;;;;;5038448;28;20493;-65
2022/10/21 07:55:11;;;;;;;31.02;23.35;;;;;;;;;;5039648;28;20029;-65
2022/10/21 07:57:37;;;;;;;34.85;24.15;;;;;;;;;;5038422;28;20026;-64
2022/10/21 08:00:03;;;;;;;31.73;21.48;;;;;;;;;;5038549;28;20033;-65
2022/10/21 08:02:29;;;;;;;37.17;21.85;;;;;;;;;;5038608;28;20026;-64
2022/10/21 08:04:55;;;;;;;29.58;22.63;;;;;;;;;;5037557;28;20025;-64
2022/10/21 08:07:21;;;;;;;30.13;22.17;;;;;;;;;;5036509;28;20022;-67
2022/10/21 08:09:47;;;;;;;29.80;21.85;;;;;;;;;;5038920;28;20028;-65
2022/10/21 08:12:13;;;;;;;34.03;23.15;;;;;;;;;;5036640;28;20029;-65
2022/10/21 08:14:39;;;;;;;33.67;22.02;;;;;;;;;;5038730;28;20022;-65
2022/10/21 08:17:06;;;;;;;58.13;24.58;;;;;;;;;;5037511;28;20484;-66
2022/10/21 08:19:32;;;;;;;45.95;24.20;;;;;;;;;;5039888;28;20037;-64
2022/10/21 08:21:58;;;;;;;42.22;25.10;;;;;;;;;;5040255;28;20087;-64
2022/10/21 08:24:25;;;;;;;41.53;24.15;;;;;;;;;;5036035;28;20022;-64
2022/10/21 08:26:51;;;;;;;42.63;22.77;;;;;;;;;;5034987;28;20108;-65
2022/10/21 08:29:17;;;;;;;45.38;24.65;;;;;;;;;;5030925;28;20090;-65
2022/10/21 08:31:43;;;;;;;37.92;22.50;;;;;;;;;;5032086;28;20342;-66
2022/10/21 08:34:10;;;;;;;32.70;20.95;;;;;;;;;;5031704;28;20402;-66
2022/10/21 08:36:36;;;;;;;27.20;19.80;;;;;;;;;;5030803;28;20052;-68
2022/10/21 08:39:03;;;;;;;29.42;19.27;;;;;;;;;;5032056;28;20103;-68
2022/10/21 08:41:29;;;;;;;26.55;19.00;;;;;;;;;;5031464;28;20136;-69
2022/10/21 08:44:13;;;;;;;27.25;18.48;;;;;;;;;;5031460;28;20513;-69
2022/10/21 08:46:49;;;;;;;24.40;18.02;;;;;;;;;;5031030;28;20037;-66
2022/10/21 08:49:15;;;;;;;23.40;17.00;;;;;;;;;;5031725;28;20104;-68
2022/10/21 08:51:45;;;;;;;24.48;17.42;;;;;;;;;;5016980;28;20029;-67
2022/10/21 08:54:37;;;;;;;25.15;17.88;;;;;;;;;;5010107;28;20030;-64
2022/10/21 08:57:03;;;;;;;22.60;16.95;;;;;;;;;;4981598;28;20093;-64
2022/10/21 08:59:29;;;;;;;27.60;17.77;;;;;;;;;;5010107;28;20107;-66
2022/10/21 09:02:14;;;;;;;33.30;25.42;;;;;;;;;;5009999;28;20026;-65
2022/10/21 09:04:40;;;;;;;63.15;50.58;;;;;;;;;;5011100;28;20041;-62
2022/10/21 09:07:09;;;;;;;38.05;27.13;;;;;;;;;;5010157;28;20022;-63
2022/10/21 09:09:47;;;;;;;25.17;17.13;;;;;;;;;;5123917;27;20133;-65
2022/10/21 09:12:32;;;;;;;51.20;42.40;;;;;;;;;;5108115;28;20127;-63
2022/10/21 09:15:03;;;;;;;24.13;16.95;;;;;;;;;;5107704;28;20024;-62
2022/10/21 09:17:29;;;;;;;29.98;23.17;;;;;;;;;;5108024;28;20067;-64
2022/10/21 09:19:59;;;;;;;31.40;23.58;;;;;;;;;;5107806;28;20059;-64
2022/10/21 09:22:44;;;;;;;30.33;21.58;;;;;;;;;;5120276;22;20045;-64
2022/10/21 09:25:28;;;;;;;25.08;15.95;;;;;;;;;;5063287;28;20044;-64
2022/10/21 09:27:55;;;;;;;23.45;15.48;;;;;;;;;;5064024;28;20021;-64
2022/10/21 09:30:22;;;;;;;27.95;20.80;;;;;;;;;;5064115;28;20036;-65
2022/10/21 09:32:49;;;;;;;24.10;16.38;;;;;;;;;;5054632;28;20151;-63
2022/10/21 09:35:22;;;;;;;25.23;16.60;;;;;;;;;;5068479;28;20039;-63
2022/10/21 09:37:54;;;;;;;20.98;13.90;;;;;;;;;;5067117;28;20115;-63
2022/10/21 09:40:25;;;;;;;19.90;13.35;;;;;;;;;;5068582;28;20029;-64
2022/10/21 09:42:55;;;;;;;20.80;12.80;;;;;;;;;;5068145;28;20052;-65
2022/10/21 09:45:24;;;;;;;19.75;13.60;;;;;;;;;;5068197;28;20040;-64
2022/10/21 09:48:11;;;;;;;22.58;14.98;;;;;;;;;;5068279;28;20035;-64
2022/10/21 09:50:37;;;;;;;22.45;13.95;;;;;;;;;;5057713;28;20108;-64
2022/10/21 09:53:11;;;;;;;21.23;13.10;;;;;;;;;;5066819;28;20348;-62
2022/10/21 09:55:38;;;;;;;22.08;13.50;;;;;;;;;;5068079;28;20017;-62
2022/10/21 09:58:05;;;;;;;22.02;13.02;;;;;;;;;;5068238;28;20027;-64
2022/10/21 10:00:48;;;;;;;22.50;13.25;;;;;;;;;;5068157;28;20045;-64
2022/10/21 10:03:31;;;;;;;20.45;12.68;;;;;;;;;;5068152;28;20341;-64
2022/10/21 10:05:57;;;;;;;19.00;13.35;;;;;;;;;;5067730;28;20028;-62
2022/10/21 10:08:26;;;;;;;20.73;13.00;;;;;;;;;;5067641;28;20052;-64
2022/10/21 10:11:00;;;;;;;20.77;12.20;;;;;;;;;;5067766;28;20013;-64
2022/10/21 10:13:27;;;;;;;22.00;12.70;;;;;;;;;;5067239;28;20029;-65
2022/10/21 10:15:54;;;;;;;24.95;12.05;;;;;;;;;;5067563;28;20488;-64
2022/10/21 10:18:21;;;;;;;20.83;12.82;;;;;;;;;;5067794;28;20052;-63
2022/10/21 10:20:47;;;;;;;20.40;11.63;;;;;;;;;;5056179;28;20072;-65
2022/10/21 10:23:18;;;;;;;18.80;11.57;;;;;;;;;;5052657;28;20481;-64
2022/10/21 10:25:48;;;;;;;19.95;11.45;;;;;;;;;;5054295;28;20032;-59
2022/10/21 10:28:24;;;;;;;25.85;12.23;;;;;;;;;;5053335;28;20099;-65
2022/10/21 10:30:52;;;;;;;21.13;12.20;;;;;;;;;;5054235;28;20021;-62
2022/10/21 10:33:18;;;;;;;19.02;12.45;;;;;;;;;;5053814;28;20056;-65
2022/10/21 10:35:49;;;;;;;25.00;12.70;;;;;;;;;;5053987;28;20439;-64
2022/10/21 10:38:25;;;;;;;19.75;10.88;;;;;;;;;;5052785;28;20055;-65
2022/10/21 10:40:52;;;;;;;19.00;11.60;;;;;;;;;;5054056;28;20040;-65
2022/10/21 10:43:25;;;;;;;21.85;11.48;;;;;;;;;;5053533;28;20048;-59
2022/10/21 10:45:58;;;;;;;21.60;12.25;;;;;;;;;;5053857;28;20357;-64
2022/10/21 10:48:34;;;;;;;21.15;11.50;;;;;;;;;;5054142;28;20028;-64
2022/10/21 10:51:05;;;;;;;19.88;12.32;;;;;;;;;;5054023;28;20017;-64
2022/10/21 10:53:35;;;;;;;23.45;12.75;;;;;;;;;;5053587;28;20040;-65
2022/10/21 10:56:04;;;;;;;19.25;11.65;;;;;;;;;;5054007;28;20021;-63
2022/10/21 10:58:31;;;;;;;21.48;12.02;;;;;;;;;;5034466;28;20108;-64
2022/10/21 11:00:59;;;;;;;18.83;11.35;;;;;;;;;;5033573;28;20025;-64
2022/10/21 11:04:00;;;;;;;19.92;10.35;;;;;;;;;;5033250;28;20026;-64
2022/10/21 11:06:33;;;;;;;19.27;11.02;;;;;;;;;;5011179;28;20516;-65
2022/10/21 11:09:00;;;;;;;20.17;11.27;;;;;;;;;;5030317;28;20049;-62
2022/10/21 11:11:27;;;;;;;18.45;10.55;;;;;;;;;;5033352;28;20056;-65
2022/10/21 11:13:53;;;;;;;17.35;11.13;;;;;;;;;;5032994;28;20032;-63
2022/10/21 11:16:45;;;;;;;21.67;11.60;;;;;;;;;;5033347;28;20393;-64
2022/10/21 11:19:11;;;;;;;24.95;13.25;;;;;;;;;;5032510;28;20401;-64
2022/10/21 11:21:47;;;;;;;18.65;11.18;;;;;;;;;;5033355;28;20445;-63
2022/10/21 11:24:25;;;;;;;23.15;13.15;;;;;;;;;;5032997;28;20037;-64
2022/10/21 11:27:13;;;;;;;19.48;11.57;;;;;;;;;;5032100;28;20063;-61
2022/10/21 11:29:45;;;;;;;20.02;12.38;;;;;;;;;;5033217;28;20026;-62
2022/10/21 11:32:21;;;;;;;18.45;11.80;;;;;;;;;;5031321;28;20028;-65
2022/10/21 11:34:54;;;;;;;21.77;11.65;;;;;;;;;;5031892;28;20461;-63
2022/10/21 11:37:27;;;;;;;20.15;11.65;;;;;;;;;;5032124;28;20109;-64
2022/10/21 11:39:57;;;;;;;21.83;10.93;;;;;;;;;;5033065;28;20183;-63
2022/10/21 11:42:30;;;;;;;20.63;11.48;;;;;;;;;;5031887;28;20025;-63
2022/10/21 11:44:56;;;;;;;19.00;10.45;;;;;;;;;;5033025;28;20556;-65
2022/10/21 11:47:25;;;;;;;18.88;11.07;;;;;;;;;;5032670;28;20028;-65
2022/10/21 11:49:51;;;;;;;19.48;11.60;;;;;;;;;;5031884;28;20021;-65
2022/10/21 11:52:29;;;;;;;21.13;12.10;;;;;;;;;;5050220;28;20388;-65
2022/10/21 11:55:03;;;;;;;21.35;12.95;;;;;;;;;;5041177;28;20025;-65
2022/10/21 11:57:52;;;;;;;23.90;14.43;;;;;;;;;;5033099;28;20138;-65
2022/10/21 12:00:21;;;;;;;22.15;15.63;;;;;;;;;;5022696;28;20025;-65
2022/10/21 12:02:53;;;;;;;17.85;13.13;;;;;;;;;;5032727;28;20507;-64
2022/10/21 12:05:28;;;;;;;20.05;17.08;;;;;;;;;;5031472;28;20030;-65
2022/10/21 12:08:13;;;;;;;20.33;18.10;;;;;;;;;;5032931;28;20025;-65
2022/10/21 12:10:39;;;;;;;21.50;19.27;;;;;;;;;;5032850;28;20688;-65
2022/10/21 12:13:11;;;;;;;21.52;19.15;;;;;;;;;;5030625;28;20087;-67
2022/10/21 12:15:40;;;;;;;22.48;17.58;;;;;;;;;;5030770;28;20021;-65
2022/10/21 12:18:11;;;;;;;21.05;18.90;;;;;;;;;;5031924;28;20029;-61
2022/10/21 12:20:37;;;;;;;19.48;15.02;;;;;;;;;;5031972;28;20021;-59
2022/10/21 12:23:05;;;;;;;19.50;15.50;;;;;;;;;;5031306;28;20694;-59
2022/10/21 12:25:34;;;;;;;21.45;16.55;;;;;;;;;;5031569;28;20033;-61
2022/10/21 12:28:05;;;;;;;17.92;15.35;;;;;;;;;;5031769;28;20134;-60
2022/10/21 12:30:39;;;;;;;19.35;15.48;;;;;;;;;;5031860;28;20030;-58
2022/10/21 12:33:05;;;;;;;21.73;15.85;;;;;;;;;;5031659;28;20026;-60
2022/10/21 12:35:43;;;;;;;18.67;15.30;;;;;;;;;;5033900;28;21255;-60
2022/10/21 12:38:24;;;;;;;19.83;15.60;;;;;;;;;;5048806;28;20082;-61
2022/10/21 12:40:51;;;;;;;19.25;16.25;;;;;;;;;;5051065;28;20048;-56
2022/10/21 12:43:21;;;;;;;18.60;16.00;;;;;;;;;;5049858;28;20131;-63
2022/10/21 12:46:00;;;;;;;19.77;16.55;;;;;;;;;;5050019;28;20032;-58
2022/10/21 12:48:35;;;;;;;18.48;16.02;;;;;;;;;;5051289;28;20556;-62
2022/10/21 12:51:03;;;;;;;18.63;16.60;;;;;;;;;;5051191;28;20408;-64
2022/10/21 12:53:35;;;;;;;18.63;16.52;;;;;;;;;;5050470;28;20079;-63
2022/10/21 12:56:01;;;;;;;20.52;18.20;;;;;;;;;;5049937;28;20036;-61
2022/10/21 12:58:37;;;;;;;21.58;18.98;;;;;;;;;;5050028;28;20025;-60
2022/10/21 13:01:04;;;;;;;21.05;17.13;;;;;;;;;;5050937;28;20021;-60
2022/10/21 13:03:45;;;;;;;22.48;17.13;;;;;;;;;;5050723;28;20031;-62
2022/10/21 13:06:12;;;;;;;19.05;15.60;;;;;;;;;;5050073;28;20025;-61
2022/10/21 13:08:44;;;;;;;18.23;16.15;;;;;;;;;;5051073;28;20090;-58
2022/10/21 13:11:10;;;;;;;19.98;16.02;;;;;;;;;;5051175;28;20100;-61
2022/10/21 13:13:38;;;;;;;20.08;15.40;;;;;;;;;;5050617;28;20127;-62
2022/10/21 13:16:27;;;;;;;21.52;15.95;;;;;;;;;;5051020;28;20021;-61
2022/10/21 13:18:58;;;;;;;18.55;15.32;;;;;;;;;;5043134;28;20041;-62
2022/10/21 13:21:33;;;;;;;18.23;15.00;;;;;;;;;;5049851;28;20180;-62
2022/10/21 13:24:11;;;;;;;18.50;14.73;;;;;;;;;;5049789;28;20404;-62
2022/10/21 13:26:40;;;;;;;21.45;14.82;;;;;;;;;;5050826;28;20473;-63
2022/10/21 13:29:18;;;;;;;16.50;12.43;;;;;;;;;;5050498;28;20033;-62
2022/10/21 13:31:45;;;;;;;18.15;13.10;;;;;;;;;;5050535;28;20025;-60
2022/10/21 13:34:28;;;;;;;16.48;12.65;;;;;;;;;;5048675;28;20029;-59
2022/10/21 13:36:54;;;;;;;19.33;13.15;;;;;;;;;;5050523;28;20122;-62
2022/10/21 13:39:29;;;;;;;18.20;13.50;;;;;;;;;;5050385;28;20652;-59
2022/10/21 13:42:01;;;;;;;18.00;13.27;;;;;;;;;;5049147;28;20059;-62
2022/10/21 13:44:29;;;;;;;19.15;13.63;;;;;;;;;;5048421;28;20061;-62
2022/10/21 13:46:57;;;;;;;;;;;;;;;;;;5050934;28;20485;-62
2022/10/21 13:49:32;;;;;;;16.67;13.38;;;;;;;;;;5049193;28;19982;-62
2022/10/21 13:51:58;;;;;;;19.65;13.20;;;;;;;;;;5048362;28;20013;-60
2022/10/21 13:54:25;;;;;;;18.15;12.98;;;;;;;;;;5050781;28;20035;-61
2022/10/21 13:56:51;;;;;;;17.83;13.45;;;;;;;;;;5049970;28;20389;-61
2022/10/21 13:59:24;;;;;;;16.98;12.98;;;;;;;;;;5034495;28;20156;-60
2022/10/21 14:01:52;;;;;;;17.45;13.05;;;;;;;;;;5033393;28;20460;-59
2022/10/21 14:04:23;;;;;;;17.83;12.52;;;;;;;;;;5033723;28;20369;-63
2022/10/21 14:07:04;;;;;;;16.15;12.52;;;;;;;;;;5034133;28;20025;-64
2022/10/21 14:09:50;;;;;;;19.85;12.27;;;;;;;;;;5032771;28;20030;-59
2022/10/21 14:12:36;;;;;;;16.63;12.40;;;;;;;;;;5033982;28;20022;-62
2022/10/21 14:15:08;;;;;;;16.30;11.48;;;;;;;;;;5033868;28;20114;-59
2022/10/21 14:17:37;;;;;;;17.25;11.48;;;;;;;;;;5032985;28;20025;-60
2022/10/21 14:20:09;;;;;;;15.82;11.57;;;;;;;;;;5034165;28;20099;-62
2022/10/21 14:22:36;;;;;;;16.95;11.15;;;;;;;;;;5033752;28;20068;-62
2022/10/21 14:25:02;;;;;;;16.27;10.57;;;;;;;;;;5034002;28;20021;-60
2022/10/21 14:27:33;;;;;;;16.90;9.50;;;;;;;;;;5033890;28;20021;-63
2022/10/21 14:30:01;;;;;;;15.75;9.52;;;;;;;;;;5033808;28;20481;-61